sensor_id;sensor_type;location;lat;lon;timestamp;P1;durP1;ratioP1;P2;durP2;ratioP2
11539;SDS011;5826;54.756;9.192;2023-05-10T00:00:57;3.28;;;2.13;;
11539;SDS011;5826;54.756;9.192;2023-05-10T00:03:22;2.42;;;2.20;;
11539;SDS011;5826;54.756;9.192;2023-05-10T00:05:48;2.50;;;2.30;;
11539;SDS011;5826;54.756;9.192;2023-05-10T00:08:14;2.00;;;1.90;;
11539;SDS011;5826;54.756;9.192;2023-05-10T00:10:39;2.38;;;2.08;;
11539;SDS011;5826;54.756;9.192;2023-05-10T00:13:05;2.45;;;2.20;;
11539;SDS011;5826;54.756;9.192;2023-05-10T00:15:31;2.00;;;1.80;;
11539;SDS011;5826;54.756;9.192;2023-05-10T00:17:56;2.10;;;1.92;;
11539;SDS011;5826;54.756;9.192;2023-05-10T00:20:22;1.80;;;1.70;;
11539;SDS011;5826;54.756;9.192;2023-05-10T00:22:47;3.38;;;2.10;;
11539;SDS011;5826;54.756;9.192;2023-05-10T00:25:13;2.53;;;2.30;;
11539;SDS011;5826;54.756;9.192;2023-05-10T00:27:38;3.03;;;2.20;;
11539;SDS011;5826;54.756;9.192;2023-05-10T00:30:04;2.65;;;2.13;;
11539;SDS011;5826;54.756;9.192;2023-05-10T00:32:31;2.33;;;2.13;;
11539;SDS011;5826;54.756;9.192;2023-05-10T00:34:56;2.30;;;2.10;;
11539;SDS011;5826;54.756;9.192;2023-05-10T00:37:22;2.30;;;1.95;;
11539;SDS011;5826;54.756;9.192;2023-05-10T00:39:47;3.05;;;2.15;;
11539;SDS011;5826;54.756;9.192;2023-05-10T00:42:13;3.08;;;2.38;;
11539;SDS011;5826;54.756;9.192;2023-05-10T00:44:38;2.22;;;2.03;;
11539;SDS011;5826;54.756;9.192;2023-05-10T00:47:04;2.53;;;2.15;;
11539;SDS011;5826;54.756;9.192;2023-05-10T00:49:29;2.53;;;2.20;;
11539;SDS011;5826;54.756;9.192;2023-05-10T00:51:56;2.50;;;2.30;;
11539;SDS011;5826;54.756;9.192;2023-05-10T00:54:22;2.78;;;2.10;;
11539;SDS011;5826;54.756;9.192;2023-05-10T00:56:47;2.60;;;2.40;;
11539;SDS011;5826;54.756;9.192;2023-05-10T00:59:14;2.50;;;2.30;;
11539;SDS011;5826;54.756;9.192;2023-05-10T01:01:44;3.25;;;2.47;;
11539;SDS011;5826;54.756;9.192;2023-05-10T01:04:11;2.65;;;2.10;;
11539;SDS011;5826;54.756;9.192;2023-05-10T01:06:38;3.47;;;2.47;;
11539;SDS011;5826;54.756;9.192;2023-05-10T01:09:06;2.75;;;2.30;;
11539;SDS011;5826;54.756;9.192;2023-05-10T01:11:35;2.35;;;2.15;;
11539;SDS011;5826;54.756;9.192;2023-05-10T01:14:03;2.20;;;2.00;;
11539;SDS011;5826;54.756;9.192;2023-05-10T01:16:29;2.90;;;2.22;;
11539;SDS011;5826;54.756;9.192;2023-05-10T01:18:58;2.15;;;2.00;;
11539;SDS011;5826;54.756;9.192;2023-05-10T01:24:19;2.40;;;2.20;;
11539;SDS011;5826;54.756;9.192;2023-05-10T01:35:17;2.95;;;2.13;;
11539;SDS011;5826;54.756;9.192;2023-05-10T01:37:56;3.00;;;2.20;;
11539;SDS011;5826;54.756;9.192;2023-05-10T01:43:01;2.60;;;2.40;;
11539;SDS011;5826;54.756;9.192;2023-05-10T01:46:14;2.45;;;2.25;;
11539;SDS011;5826;54.756;9.192;2023-05-10T01:48:29;2.95;;;2.38;;
11539;SDS011;5826;54.756;9.192;2023-05-10T01:50:56;3.00;;;2.40;;
11539;SDS011;5826;54.756;9.192;2023-05-10T01:53:22;2.40;;;2.20;;
11539;SDS011;5826;54.756;9.192;2023-05-10T01:55:49;2.60;;;2.40;;
11539;SDS011;5826;54.756;9.192;2023-05-10T01:58:21;2.47;;;2.28;;
11539;SDS011;5826;54.756;9.192;2023-05-10T02:00:50;2.85;;;2.22;;
11539;SDS011;5826;54.756;9.192;2023-05-10T02:03:20;2.67;;;2.17;;
11539;SDS011;5826;54.756;9.192;2023-05-10T02:05:48;2.88;;;2.60;;
11539;SDS011;5826;54.756;9.192;2023-05-10T02:08:15;2.50;;;2.30;;
11539;SDS011;5826;54.756;9.192;2023-05-10T02:10:42;2.58;;;2.38;;
11539;SDS011;5826;54.756;9.192;2023-05-10T02:13:09;4.03;;;2.60;;
11539;SDS011;5826;54.756;9.192;2023-05-10T02:15:36;2.90;;;2.50;;
11539;SDS011;5826;54.756;9.192;2023-05-10T02:18:03;3.80;;;2.65;;
11539;SDS011;5826;54.756;9.192;2023-05-10T02:20:30;2.95;;;2.58;;
11539;SDS011;5826;54.756;9.192;2023-05-10T02:22:57;2.53;;;2.13;;
11539;SDS011;5826;54.756;9.192;2023-05-10T02:25:23;2.97;;;2.50;;
11539;SDS011;5826;54.756;9.192;2023-05-10T02:27:50;3.00;;;2.70;;
11539;SDS011;5826;54.756;9.192;2023-05-10T02:30:18;4.20;;;2.60;;
11539;SDS011;5826;54.756;9.192;2023-05-10T02:32:44;2.60;;;2.40;;
11539;SDS011;5826;54.756;9.192;2023-05-10T02:35:11;3.67;;;2.50;;
11539;SDS011;5826;54.756;9.192;2023-05-10T02:37:37;4.63;;;2.70;;
11539;SDS011;5826;54.756;9.192;2023-05-10T02:40:05;2.80;;;2.60;;
11539;SDS011;5826;54.756;9.192;2023-05-10T02:42:32;3.10;;;2.80;;
11539;SDS011;5826;54.756;9.192;2023-05-10T02:45:01;2.58;;;2.38;;
11539;SDS011;5826;54.756;9.192;2023-05-10T02:47:30;3.42;;;2.70;;
11539;SDS011;5826;54.756;9.192;2023-05-10T02:49:56;2.65;;;2.35;;
11539;SDS011;5826;54.756;9.192;2023-05-10T02:52:23;2.90;;;2.53;;
11539;SDS011;5826;54.756;9.192;2023-05-10T02:54:52;2.90;;;2.47;;
11539;SDS011;5826;54.756;9.192;2023-05-10T02:57:22;3.08;;;2.78;;
11539;SDS011;5826;54.756;9.192;2023-05-10T02:59:54;2.92;;;2.72;;
11539;SDS011;5826;54.756;9.192;2023-05-10T03:02:20;2.50;;;2.30;;
11539;SDS011;5826;54.756;9.192;2023-05-10T03:04:46;3.78;;;2.53;;
11539;SDS011;5826;54.756;9.192;2023-05-10T03:07:11;2.65;;;2.35;;
11539;SDS011;5826;54.756;9.192;2023-05-10T03:09:38;3.05;;;2.70;;
11539;SDS011;5826;54.756;9.192;2023-05-10T03:12:05;3.05;;;2.75;;
11539;SDS011;5826;54.756;9.192;2023-05-10T03:17:39;2.80;;;2.42;;
11539;SDS011;5826;54.756;9.192;2023-05-10T03:20:12;2.88;;;2.42;;
11539;SDS011;5826;54.756;9.192;2023-05-10T03:22:52;3.08;;;2.78;;
11539;SDS011;5826;54.756;9.192;2023-05-10T03:25:23;2.47;;;2.28;;
11539;SDS011;5826;54.756;9.192;2023-05-10T03:27:49;2.63;;;2.38;;
11539;SDS011;5826;54.756;9.192;2023-05-10T03:30:16;3.40;;;2.70;;
11539;SDS011;5826;54.756;9.192;2023-05-10T03:32:43;3.00;;;2.70;;
11539;SDS011;5826;54.756;9.192;2023-05-10T03:35:09;3.85;;;2.60;;
11539;SDS011;5826;54.756;9.192;2023-05-10T03:37:36;2.80;;;2.60;;
11539;SDS011;5826;54.756;9.192;2023-05-10T03:40:02;2.95;;;2.70;;
11539;SDS011;5826;54.756;9.192;2023-05-10T03:42:28;3.15;;;2.75;;
11539;SDS011;5826;54.756;9.192;2023-05-10T03:44:53;3.90;;;2.75;;
11539;SDS011;5826;54.756;9.192;2023-05-10T03:47:19;3.40;;;2.75;;
11539;SDS011;5826;54.756;9.192;2023-05-10T03:49:45;4.40;;;2.97;;
11539;SDS011;5826;54.756;9.192;2023-05-10T03:52:10;2.88;;;2.60;;
11539;SDS011;5826;54.756;9.192;2023-05-10T03:54:36;3.65;;;2.50;;
11539;SDS011;5826;54.756;9.192;2023-05-10T03:57:01;3.15;;;2.88;;
11539;SDS011;5826;54.756;9.192;2023-05-10T03:59:27;2.97;;;2.50;;
11539;SDS011;5826;54.756;9.192;2023-05-10T04:01:53;3.35;;;2.50;;
11539;SDS011;5826;54.756;9.192;2023-05-10T04:04:18;3.35;;;2.63;;
11539;SDS011;5826;54.756;9.192;2023-05-10T04:06:45;2.95;;;2.65;;
11539;SDS011;5826;54.756;9.192;2023-05-10T04:09:11;5.28;;;3.08;;
11539;SDS011;5826;54.756;9.192;2023-05-10T04:11:36;4.20;;;2.80;;
11539;SDS011;5826;54.756;9.192;2023-05-10T04:14:02;2.90;;;2.60;;
11539;SDS011;5826;54.756;9.192;2023-05-10T04:16:27;3.15;;;2.80;;
11539;SDS011;5826;54.756;9.192;2023-05-10T04:18:53;3.58;;;2.80;;
11539;SDS011;5826;54.756;9.192;2023-05-10T04:21:18;3.10;;;2.30;;
11539;SDS011;5826;54.756;9.192;2023-05-10T04:23:44;3.83;;;2.78;;
11539;SDS011;5826;54.756;9.192;2023-05-10T04:26:10;3.20;;;2.75;;
11539;SDS011;5826;54.756;9.192;2023-05-10T04:28:35;3.72;;;2.60;;
11539;SDS011;5826;54.756;9.192;2023-05-10T04:31:04;3.05;;;2.67;;
11539;SDS011;5826;54.756;9.192;2023-05-10T04:33:31;3.00;;;2.40;;
11539;SDS011;5826;54.756;9.192;2023-05-10T04:35:57;3.53;;;3.00;;
11539;SDS011;5826;54.756;9.192;2023-05-10T04:38:22;3.13;;;2.83;;
11539;SDS011;5826;54.756;9.192;2023-05-10T04:40:48;3.00;;;2.67;;
11539;SDS011;5826;54.756;9.192;2023-05-10T04:43:13;2.97;;;2.65;;
11539;SDS011;5826;54.756;9.192;2023-05-10T04:45:39;4.05;;;3.05;;
11539;SDS011;5826;54.756;9.192;2023-05-10T04:48:04;2.90;;;2.55;;
11539;SDS011;5826;54.756;9.192;2023-05-10T04:50:30;2.97;;;2.70;;
11539;SDS011;5826;54.756;9.192;2023-05-10T04:52:56;3.05;;;2.75;;
11539;SDS011;5826;54.756;9.192;2023-05-10T04:55:22;3.67;;;2.72;;
11539;SDS011;5826;54.756;9.192;2023-05-10T04:57:47;2.90;;;2.50;;
11539;SDS011;5826;54.756;9.192;2023-05-10T05:00:13;3.20;;;2.80;;
11539;SDS011;5826;54.756;9.192;2023-05-10T05:02:41;2.83;;;2.63;;
11539;SDS011;5826;54.756;9.192;2023-05-10T05:05:08;4.15;;;2.85;;
11539;SDS011;5826;54.756;9.192;2023-05-10T05:07:34;4.15;;;3.10;;
11539;SDS011;5826;54.756;9.192;2023-05-10T05:09:59;3.03;;;2.58;;
11539;SDS011;5826;54.756;9.192;2023-05-10T05:12:25;4.03;;;2.70;;
11539;SDS011;5826;54.756;9.192;2023-05-10T05:14:50;2.83;;;2.53;;
11539;SDS011;5826;54.756;9.192;2023-05-10T05:17:16;2.78;;;2.58;;
11539;SDS011;5826;54.756;9.192;2023-05-10T05:19:41;3.10;;;2.65;;
11539;SDS011;5826;54.756;9.192;2023-05-10T05:22:07;3.63;;;2.60;;
11539;SDS011;5826;54.756;9.192;2023-05-10T05:24:36;3.15;;;2.80;;
11539;SDS011;5826;54.756;9.192;2023-05-10T05:27:05;3.30;;;3.00;;
11539;SDS011;5826;54.756;9.192;2023-05-10T05:29:31;3.90;;;2.40;;
11539;SDS011;5826;54.756;9.192;2023-05-10T05:31:56;5.95;;;2.75;;
11539;SDS011;5826;54.756;9.192;2023-05-10T05:34:22;4.30;;;2.25;;
11539;SDS011;5826;54.756;9.192;2023-05-10T05:36:48;2.92;;;2.47;;
11539;SDS011;5826;54.756;9.192;2023-05-10T05:39:13;2.60;;;2.40;;
11539;SDS011;5826;54.756;9.192;2023-05-10T05:41:39;2.58;;;2.38;;
11539;SDS011;5826;54.756;9.192;2023-05-10T05:44:04;3.58;;;2.67;;
11539;SDS011;5826;54.756;9.192;2023-05-10T05:46:30;3.10;;;2.80;;
11539;SDS011;5826;54.756;9.192;2023-05-10T05:48:55;2.90;;;2.70;;
11539;SDS011;5826;54.756;9.192;2023-05-10T05:51:21;3.17;;;2.63;;
11539;SDS011;5826;54.756;9.192;2023-05-10T05:53:47;2.80;;;2.60;;
11539;SDS011;5826;54.756;9.192;2023-05-10T05:56:12;3.20;;;2.83;;
11539;SDS011;5826;54.756;9.192;2023-05-10T05:58:37;2.83;;;2.60;;
11539;SDS011;5826;54.756;9.192;2023-05-10T06:01:03;2.97;;;2.78;;
11539;SDS011;5826;54.756;9.192;2023-05-10T06:03:29;3.17;;;2.88;;
11539;SDS011;5826;54.756;9.192;2023-05-10T06:05:54;3.15;;;2.45;;
11539;SDS011;5826;54.756;9.192;2023-05-10T06:08:20;2.83;;;2.63;;
11539;SDS011;5826;54.756;9.192;2023-05-10T06:10:45;3.22;;;2.92;;
11539;SDS011;5826;54.756;9.192;2023-05-10T06:13:11;3.58;;;2.75;;
11539;SDS011;5826;54.756;9.192;2023-05-10T06:15:37;3.45;;;2.60;;
11539;SDS011;5826;54.756;9.192;2023-05-10T06:18:03;2.95;;;2.75;;
11539;SDS011;5826;54.756;9.192;2023-05-10T06:20:28;3.05;;;2.72;;
11539;SDS011;5826;54.756;9.192;2023-05-10T06:22:56;2.85;;;2.65;;
11539;SDS011;5826;54.756;9.192;2023-05-10T06:25:22;3.35;;;2.60;;
11539;SDS011;5826;54.756;9.192;2023-05-10T06:27:48;4.50;;;2.75;;
11539;SDS011;5826;54.756;9.192;2023-05-10T06:30:13;3.30;;;3.00;;
11539;SDS011;5826;54.756;9.192;2023-05-10T06:32:40;3.08;;;2.55;;
11539;SDS011;5826;54.756;9.192;2023-05-10T06:35:06;3.40;;;3.10;;
11539;SDS011;5826;54.756;9.192;2023-05-10T06:37:32;2.90;;;2.70;;
11539;SDS011;5826;54.756;9.192;2023-05-10T06:39:57;3.10;;;2.85;;
11539;SDS011;5826;54.756;9.192;2023-05-10T06:42:24;3.03;;;2.72;;
11539;SDS011;5826;54.756;9.192;2023-05-10T06:44:53;2.80;;;2.60;;
11539;SDS011;5826;54.756;9.192;2023-05-10T06:47:19;2.92;;;2.72;;
11539;SDS011;5826;54.756;9.192;2023-05-10T06:49:44;4.15;;;2.90;;
11539;SDS011;5826;54.756;9.192;2023-05-10T06:52:10;2.88;;;2.58;;
11539;SDS011;5826;54.756;9.192;2023-05-10T06:54:35;2.88;;;2.60;;
11539;SDS011;5826;54.756;9.192;2023-05-10T06:57:01;2.65;;;2.40;;
11539;SDS011;5826;54.756;9.192;2023-05-10T06:59:28;3.30;;;3.00;;
11539;SDS011;5826;54.756;9.192;2023-05-10T07:01:53;3.53;;;2.80;;
11539;SDS011;5826;54.756;9.192;2023-05-10T07:04:19;2.85;;;2.50;;
11539;SDS011;5826;54.756;9.192;2023-05-10T07:06:44;2.28;;;2.10;;
11539;SDS011;5826;54.756;9.192;2023-05-10T07:09:11;2.83;;;2.50;;
11539;SDS011;5826;54.756;9.192;2023-05-10T07:11:36;3.05;;;2.55;;
11539;SDS011;5826;54.756;9.192;2023-05-10T07:14:02;2.90;;;2.45;;
11539;SDS011;5826;54.756;9.192;2023-05-10T07:16:27;2.92;;;2.72;;
11539;SDS011;5826;54.756;9.192;2023-05-10T07:18:53;2.80;;;2.60;;
11539;SDS011;5826;54.756;9.192;2023-05-10T07:21:19;2.60;;;2.40;;
11539;SDS011;5826;54.756;9.192;2023-05-10T07:23:44;2.53;;;2.33;;
11539;SDS011;5826;54.756;9.192;2023-05-10T07:26:10;2.78;;;2.40;;
11539;SDS011;5826;54.756;9.192;2023-05-10T07:28:36;2.92;;;2.63;;
11539;SDS011;5826;54.756;9.192;2023-05-10T07:31:02;2.60;;;2.40;;
11539;SDS011;5826;54.756;9.192;2023-05-10T07:33:28;2.97;;;2.70;;
11539;SDS011;5826;54.756;9.192;2023-05-10T07:35:53;3.20;;;2.90;;
11539;SDS011;5826;54.756;9.192;2023-05-10T07:38:18;3.50;;;2.75;;
11539;SDS011;5826;54.756;9.192;2023-05-10T07:40:44;3.67;;;3.17;;
11539;SDS011;5826;54.756;9.192;2023-05-10T07:43:09;2.83;;;2.63;;
11539;SDS011;5826;54.756;9.192;2023-05-10T07:45:35;3.10;;;2.80;;
11539;SDS011;5826;54.756;9.192;2023-05-10T07:48:00;3.80;;;2.67;;
11539;SDS011;5826;54.756;9.192;2023-05-10T07:50:26;2.97;;;2.78;;
11539;SDS011;5826;54.756;9.192;2023-05-10T07:52:51;4.00;;;3.20;;
11539;SDS011;5826;54.756;9.192;2023-05-10T07:55:18;3.33;;;3.03;;
11539;SDS011;5826;54.756;9.192;2023-05-10T07:57:43;3.05;;;2.75;;
11539;SDS011;5826;54.756;9.192;2023-05-10T08:00:09;3.65;;;2.85;;
11539;SDS011;5826;54.756;9.192;2023-05-10T08:02:38;2.97;;;2.72;;
11539;SDS011;5826;54.756;9.192;2023-05-10T08:05:03;3.00;;;2.70;;
11539;SDS011;5826;54.756;9.192;2023-05-10T08:07:30;2.50;;;2.30;;
11539;SDS011;5826;54.756;9.192;2023-05-10T08:09:56;2.90;;;2.70;;
11539;SDS011;5826;54.756;9.192;2023-05-10T08:12:21;3.40;;;3.03;;
11539;SDS011;5826;54.756;9.192;2023-05-10T08:14:46;3.20;;;2.90;;
11539;SDS011;5826;54.756;9.192;2023-05-10T08:17:12;2.80;;;2.60;;
11539;SDS011;5826;54.756;9.192;2023-05-10T08:19:37;2.63;;;2.42;;
11539;SDS011;5826;54.756;9.192;2023-05-10T08:22:03;4.00;;;3.35;;
11539;SDS011;5826;54.756;9.192;2023-05-10T08:24:28;3.55;;;3.25;;
11539;SDS011;5826;54.756;9.192;2023-05-10T08:26:54;3.72;;;2.75;;
11539;SDS011;5826;54.756;9.192;2023-05-10T08:29:19;3.10;;;2.80;;
11539;SDS011;5826;54.756;9.192;2023-05-10T08:31:45;3.20;;;2.90;;
11539;SDS011;5826;54.756;9.192;2023-05-10T08:34:10;3.03;;;2.63;;
11539;SDS011;5826;54.756;9.192;2023-05-10T08:36:36;4.05;;;3.00;;
11539;SDS011;5826;54.756;9.192;2023-05-10T08:39:01;2.95;;;2.75;;
11539;SDS011;5826;54.756;9.192;2023-05-10T08:41:27;3.75;;;2.95;;
11539;SDS011;5826;54.756;9.192;2023-05-10T08:43:54;3.10;;;2.80;;
11539;SDS011;5826;54.756;9.192;2023-05-10T08:46:22;2.80;;;2.60;;
11539;SDS011;5826;54.756;9.192;2023-05-10T08:48:48;3.08;;;2.80;;
11539;SDS011;5826;54.756;9.192;2023-05-10T08:51:18;4.07;;;3.50;;
11539;SDS011;5826;54.756;9.192;2023-05-10T08:53:46;4.18;;;3.78;;
11539;SDS011;5826;54.756;9.192;2023-05-10T08:56:12;3.67;;;3.38;;
11539;SDS011;5826;54.756;9.192;2023-05-10T08:58:38;3.55;;;3.25;;
11539;SDS011;5826;54.756;9.192;2023-05-10T09:01:04;2.95;;;2.75;;
11539;SDS011;5826;54.756;9.192;2023-05-10T09:03:31;2.80;;;2.60;;
11539;SDS011;5826;54.756;9.192;2023-05-10T09:05:57;4.53;;;3.90;;
11539;SDS011;5826;54.756;9.192;2023-05-10T09:08:23;3.47;;;3.17;;
11539;SDS011;5826;54.756;9.192;2023-05-10T09:10:51;2.85;;;2.65;;
11539;SDS011;5826;54.756;9.192;2023-05-10T09:13:17;2.97;;;2.70;;
11539;SDS011;5826;54.756;9.192;2023-05-10T09:15:44;3.00;;;2.70;;
11539;SDS011;5826;54.756;9.192;2023-05-10T09:18:10;3.92;;;2.63;;
11539;SDS011;5826;54.756;9.192;2023-05-10T09:20:36;3.00;;;2.80;;
11539;SDS011;5826;54.756;9.192;2023-05-10T09:23:01;3.60;;;2.95;;
11539;SDS011;5826;54.756;9.192;2023-05-10T09:25:27;2.92;;;2.72;;
11539;SDS011;5826;54.756;9.192;2023-05-10T09:27:52;3.13;;;2.90;;
11539;SDS011;5826;54.756;9.192;2023-05-10T09:32:49;2.97;;;2.67;;
11539;SDS011;5826;54.756;9.192;2023-05-10T09:35:16;2.97;;;2.78;;
11539;SDS011;5826;54.756;9.192;2023-05-10T09:37:43;3.25;;;2.95;;
11539;SDS011;5826;54.756;9.192;2023-05-10T09:40:11;2.92;;;2.70;;
11539;SDS011;5826;54.756;9.192;2023-05-10T09:42:38;3.58;;;3.20;;
11539;SDS011;5826;54.756;9.192;2023-05-10T09:45:15;3.22;;;2.92;;
11539;SDS011;5826;54.756;9.192;2023-05-10T09:47:41;3.30;;;3.00;;
11539;SDS011;5826;54.756;9.192;2023-05-10T09:50:07;3.15;;;2.88;;
11539;SDS011;5826;54.756;9.192;2023-05-10T09:52:45;4.07;;;3.72;;
11539;SDS011;5826;54.756;9.192;2023-05-10T09:55:16;3.42;;;3.05;;
11539;SDS011;5826;54.756;9.192;2023-05-10T09:57:44;3.97;;;3.58;;
11539;SDS011;5826;54.756;9.192;2023-05-10T10:00:13;3.42;;;3.13;;
11539;SDS011;5826;54.756;9.192;2023-05-10T10:02:42;3.30;;;3.00;;
11539;SDS011;5826;54.756;9.192;2023-05-10T10:05:07;3.60;;;3.30;;
11539;SDS011;5826;54.756;9.192;2023-05-10T10:07:33;4.13;;;3.53;;
11539;SDS011;5826;54.756;9.192;2023-05-10T10:10:00;3.53;;;3.22;;
11539;SDS011;5826;54.756;9.192;2023-05-10T10:12:25;3.40;;;3.10;;
11539;SDS011;5826;54.756;9.192;2023-05-10T10:14:51;3.60;;;3.30;;
11539;SDS011;5826;54.756;9.192;2023-05-10T10:17:18;4.00;;;3.70;;
11539;SDS011;5826;54.756;9.192;2023-05-10T10:19:45;3.47;;;3.17;;
11539;SDS011;5826;54.756;9.192;2023-05-10T10:22:11;3.33;;;3.03;;
11539;SDS011;5826;54.756;9.192;2023-05-10T10:24:37;3.17;;;2.88;;
11539;SDS011;5826;54.756;9.192;2023-05-10T10:30:03;3.78;;;3.22;;
11539;SDS011;5826;54.756;9.192;2023-05-10T10:35:19;3.42;;;3.13;;
11539;SDS011;5826;54.756;9.192;2023-05-10T10:37:46;3.53;;;3.22;;
11539;SDS011;5826;54.756;9.192;2023-05-10T10:40:31;3.83;;;3.50;;
11539;SDS011;5826;54.756;9.192;2023-05-10T10:42:58;3.92;;;3.50;;
11539;SDS011;5826;54.756;9.192;2023-05-10T10:45:56;3.20;;;3.00;;
11539;SDS011;5826;54.756;9.192;2023-05-10T10:48:47;3.42;;;3.13;;
11539;SDS011;5826;54.756;9.192;2023-05-10T10:51:17;3.83;;;3.53;;
11539;SDS011;5826;54.756;9.192;2023-05-10T10:53:42;8.00;;;5.82;;
11539;SDS011;5826;54.756;9.192;2023-05-10T10:56:09;4.13;;;3.72;;
11539;SDS011;5826;54.756;9.192;2023-05-10T10:58:40;5.20;;;4.47;;
11539;SDS011;5826;54.756;9.192;2023-05-10T11:01:16;5.68;;;5.20;;
11539;SDS011;5826;54.756;9.192;2023-05-10T11:06:33;4.28;;;3.88;;
11539;SDS011;5826;54.756;9.192;2023-05-10T11:09:10;5.65;;;4.75;;
11539;SDS011;5826;54.756;9.192;2023-05-10T11:11:52;5.53;;;4.85;;
11539;SDS011;5826;54.756;9.192;2023-05-10T11:14:23;6.35;;;5.38;;
11539;SDS011;5826;54.756;9.192;2023-05-10T11:16:49;6.90;;;6.18;;
11539;SDS011;5826;54.756;9.192;2023-05-10T11:19:15;6.32;;;5.72;;
11539;SDS011;5826;54.756;9.192;2023-05-10T11:21:45;5.88;;;5.13;;
11539;SDS011;5826;54.756;9.192;2023-05-10T11:24:37;4.25;;;3.85;;
11539;SDS011;5826;54.756;9.192;2023-05-10T11:27:03;4.63;;;4.28;;
11539;SDS011;5826;54.756;9.192;2023-05-10T11:29:29;5.03;;;4.55;;
11539;SDS011;5826;54.756;9.192;2023-05-10T11:31:56;7.32;;;5.47;;
11539;SDS011;5826;54.756;9.192;2023-05-10T11:34:27;5.40;;;4.93;;
11539;SDS011;5826;54.756;9.192;2023-05-10T11:36:55;4.78;;;4.38;;
11539;SDS011;5826;54.756;9.192;2023-05-10T11:39:25;4.93;;;4.43;;
11539;SDS011;5826;54.756;9.192;2023-05-10T11:41:55;6.10;;;5.57;;
11539;SDS011;5826;54.756;9.192;2023-05-10T11:44:21;4.85;;;4.45;;
11539;SDS011;5826;54.756;9.192;2023-05-10T11:46:47;5.18;;;4.68;;
11539;SDS011;5826;54.756;9.192;2023-05-10T11:49:14;5.88;;;5.25;;
11539;SDS011;5826;54.756;9.192;2023-05-10T11:51:39;4.68;;;4.28;;
11539;SDS011;5826;54.756;9.192;2023-05-10T11:54:07;5.10;;;4.60;;
11539;SDS011;5826;54.756;9.192;2023-05-10T11:56:36;4.68;;;4.25;;
11539;SDS011;5826;54.756;9.192;2023-05-10T11:59:02;5.15;;;4.72;;
11539;SDS011;5826;54.756;9.192;2023-05-10T12:01:28;7.20;;;5.28;;
11539;SDS011;5826;54.756;9.192;2023-05-10T12:03:55;4.78;;;4.38;;
11539;SDS011;5826;54.756;9.192;2023-05-10T12:06:25;4.43;;;4.07;;
11539;SDS011;5826;54.756;9.192;2023-05-10T12:08:56;8.48;;;7.40;;
11539;SDS011;5826;54.756;9.192;2023-05-10T12:11:24;6.55;;;6.05;;
11539;SDS011;5826;54.756;9.192;2023-05-10T12:13:51;7.68;;;6.68;;
11539;SDS011;5826;54.756;9.192;2023-05-10T12:16:17;6.18;;;5.38;;
11539;SDS011;5826;54.756;9.192;2023-05-10T12:18:44;5.28;;;4.78;;
11539;SDS011;5826;54.756;9.192;2023-05-10T12:21:10;5.20;;;4.70;;
11539;SDS011;5826;54.756;9.192;2023-05-10T12:23:36;7.05;;;6.45;;
11539;SDS011;5826;54.756;9.192;2023-05-10T12:26:03;5.75;;;5.25;;
11539;SDS011;5826;54.756;9.192;2023-05-10T12:28:32;5.90;;;5.30;;
11539;SDS011;5826;54.756;9.192;2023-05-10T12:31:01;5.55;;;5.05;;
11539;SDS011;5826;54.756;9.192;2023-05-10T12:33:27;5.03;;;4.63;;
11539;SDS011;5826;54.756;9.192;2023-05-10T12:36:03;6.03;;;5.43;;
11539;SDS011;5826;54.756;9.192;2023-05-10T12:38:32;9.73;;;8.90;;
11539;SDS011;5826;54.756;9.192;2023-05-10T12:40:59;6.22;;;5.63;;
11539;SDS011;5826;54.756;9.192;2023-05-10T12:43:26;9.07;;;8.27;;
11539;SDS011;5826;54.756;9.192;2023-05-10T12:45:51;7.18;;;6.57;;
11539;SDS011;5826;54.756;9.192;2023-05-10T12:48:17;7.10;;;6.40;;
11539;SDS011;5826;54.756;9.192;2023-05-10T12:50:43;8.82;;;8.00;;
11539;SDS011;5826;54.756;9.192;2023-05-10T12:53:08;9.10;;;8.20;;
11539;SDS011;5826;54.756;9.192;2023-05-10T12:55:34;6.45;;;5.85;;
11539;SDS011;5826;54.756;9.192;2023-05-10T12:57:59;9.70;;;8.80;;
11539;SDS011;5826;54.756;9.192;2023-05-10T13:00:25;7.57;;;6.97;;
11539;SDS011;5826;54.756;9.192;2023-05-10T13:02:50;7.72;;;6.85;;
11539;SDS011;5826;54.756;9.192;2023-05-10T13:05:17;6.13;;;5.38;;
11539;SDS011;5826;54.756;9.192;2023-05-10T13:07:42;8.80;;;8.00;;
11539;SDS011;5826;54.756;9.192;2023-05-10T13:10:08;10.07;;;9.18;;
11539;SDS011;5826;54.756;9.192;2023-05-10T13:12:34;8.00;;;7.20;;
11539;SDS011;5826;54.756;9.192;2023-05-10T13:15:00;6.70;;;6.10;;
11539;SDS011;5826;54.756;9.192;2023-05-10T13:17:25;8.43;;;7.70;;
11539;SDS011;5826;54.756;9.192;2023-05-10T13:19:51;7.20;;;6.60;;
11539;SDS011;5826;54.756;9.192;2023-05-10T13:22:16;8.15;;;6.65;;
11539;SDS011;5826;54.756;9.192;2023-05-10T13:24:42;11.90;;;9.88;;
11539;SDS011;5826;54.756;9.192;2023-05-10T13:27:08;7.43;;;6.68;;
11539;SDS011;5826;54.756;9.192;2023-05-10T13:29:33;10.63;;;9.05;;
11539;SDS011;5826;54.756;9.192;2023-05-10T13:31:59;6.63;;;6.03;;
11539;SDS011;5826;54.756;9.192;2023-05-10T13:34:24;10.48;;;9.57;;
11539;SDS011;5826;54.756;9.192;2023-05-10T13:36:50;9.13;;;7.93;;
11539;SDS011;5826;54.756;9.192;2023-05-10T13:39:16;6.95;;;6.25;;
11539;SDS011;5826;54.756;9.192;2023-05-10T13:41:41;7.63;;;6.82;;
11539;SDS011;5826;54.756;9.192;2023-05-10T13:44:07;6.97;;;6.38;;
11539;SDS011;5826;54.756;9.192;2023-05-10T13:46:32;7.13;;;6.45;;
11539;SDS011;5826;54.756;9.192;2023-05-10T13:48:58;7.45;;;6.68;;
11539;SDS011;5826;54.756;9.192;2023-05-10T13:51:23;7.30;;;6.70;;
11539;SDS011;5826;54.756;9.192;2023-05-10T13:53:49;6.43;;;5.85;;
11539;SDS011;5826;54.756;9.192;2023-05-10T13:56:14;7.43;;;6.82;;
11539;SDS011;5826;54.756;9.192;2023-05-10T13:58:40;6.95;;;6.30;;
11539;SDS011;5826;54.756;9.192;2023-05-10T14:01:06;6.18;;;5.57;;
11539;SDS011;5826;54.756;9.192;2023-05-10T14:03:31;7.93;;;7.22;;
11539;SDS011;5826;54.756;9.192;2023-05-10T14:05:57;8.25;;;7.45;;
11539;SDS011;5826;54.756;9.192;2023-05-10T14:08:23;6.82;;;6.13;;
11539;SDS011;5826;54.756;9.192;2023-05-10T14:10:48;6.38;;;5.78;;
11539;SDS011;5826;54.756;9.192;2023-05-10T14:13:14;6.50;;;5.90;;
11539;SDS011;5826;54.756;9.192;2023-05-10T14:15:40;6.88;;;6.25;;
11539;SDS011;5826;54.756;9.192;2023-05-10T14:18:06;6.80;;;5.72;;
11539;SDS011;5826;54.756;9.192;2023-05-10T14:20:31;6.45;;;5.85;;
11539;SDS011;5826;54.756;9.192;2023-05-10T14:22:58;6.30;;;5.72;;
11539;SDS011;5826;54.756;9.192;2023-05-10T14:25:24;6.82;;;6.20;;
11539;SDS011;5826;54.756;9.192;2023-05-10T14:27:50;6.85;;;6.25;;
11539;SDS011;5826;54.756;9.192;2023-05-10T14:30:16;6.63;;;6.03;;
11539;SDS011;5826;54.756;9.192;2023-05-10T14:32:41;6.60;;;6.00;;
11539;SDS011;5826;54.756;9.192;2023-05-10T14:35:07;6.38;;;5.78;;
11539;SDS011;5826;54.756;9.192;2023-05-10T14:37:33;7.40;;;6.70;;
11539;SDS011;5826;54.756;9.192;2023-05-10T14:39:59;5.93;;;5.32;;
11539;SDS011;5826;54.756;9.192;2023-05-10T14:42:25;6.25;;;5.68;;
11539;SDS011;5826;54.756;9.192;2023-05-10T14:44:50;5.93;;;5.40;;
11539;SDS011;5826;54.756;9.192;2023-05-10T14:47:16;6.05;;;5.55;;
11539;SDS011;5826;54.756;9.192;2023-05-10T14:49:41;6.43;;;5.90;;
11539;SDS011;5826;54.756;9.192;2023-05-10T14:52:07;6.40;;;5.80;;
11539;SDS011;5826;54.756;9.192;2023-05-10T14:54:32;6.53;;;5.93;;
11539;SDS011;5826;54.756;9.192;2023-05-10T14:56:58;5.90;;;5.40;;
11539;SDS011;5826;54.756;9.192;2023-05-10T14:59:25;5.82;;;5.22;;
11539;SDS011;5826;54.756;9.192;2023-05-10T15:01:50;7.03;;;6.38;;
11539;SDS011;5826;54.756;9.192;2023-05-10T15:04:16;5.70;;;5.20;;
11539;SDS011;5826;54.756;9.192;2023-05-10T15:06:41;5.82;;;5.32;;
11539;SDS011;5826;54.756;9.192;2023-05-10T15:09:07;6.43;;;5.85;;
11539;SDS011;5826;54.756;9.192;2023-05-10T15:11:33;5.68;;;5.18;;
11539;SDS011;5826;54.756;9.192;2023-05-10T15:13:59;6.00;;;5.50;;
11539;SDS011;5826;54.756;9.192;2023-05-10T15:16:25;5.75;;;5.25;;
11539;SDS011;5826;54.756;9.192;2023-05-10T15:18:51;6.50;;;5.90;;
11539;SDS011;5826;54.756;9.192;2023-05-10T15:21:16;5.95;;;5.45;;
11539;SDS011;5826;54.756;9.192;2023-05-10T15:23:42;6.22;;;5.72;;
11539;SDS011;5826;54.756;9.192;2023-05-10T15:26:07;6.93;;;5.63;;